Terminal Aerodrome Forecast
Issued by NWS

Home | Current Version | Previous Version | Graphics & Text | Print | Product List | Glossary On
Versions: 1 2 3 4 5 6 7 8 9 10 11 12 13 14 15 16 17 18 19 20 21 22 23 24 25 26 27 28 29 30
606
FTUS43 KABR 260101 AAA
TAFATY
TAF AMD
KATY 260101Z 2601/2624 09008KT 5SM BR OVC004
     FM260300 11006KT 3SM BR BKN003
     FM260900 05005KT 1/2SM FG OVC003
     FM261700 04005KT P6SM BKN008
     FM261900 03004KT P6SM BKN015=

USA.gov is the U.S. government's official web portal to all federal, state and local government web resources and services.